sensor_id;sensor_type;location;lat;lon;timestamp;P1;durP1;ratioP1;P2;durP2;ratioP2
28266;SDS011;15525;45.568;5.448;2023-12-20T00:00:50;62.83;;;31.55;;
28266;SDS011;15525;45.568;5.448;2023-12-20T00:03:15;69.15;;;32.83;;
28266;SDS011;15525;45.568;5.448;2023-12-20T00:05:41;77.05;;;34.05;;
28266;SDS011;15525;45.568;5.448;2023-12-20T00:08:06;69.00;;;32.25;;
28266;SDS011;15525;45.568;5.448;2023-12-20T00:10:32;65.75;;;30.70;;
28266;SDS011;15525;45.568;5.448;2023-12-20T00:12:58;74.18;;;33.65;;
28266;SDS011;15525;45.568;5.448;2023-12-20T00:15:23;73.75;;;33.58;;
28266;SDS011;15525;45.568;5.448;2023-12-20T00:17:49;71.30;;;33.22;;
28266;SDS011;15525;45.568;5.448;2023-12-20T00:20:14;67.85;;;32.70;;
28266;SDS011;15525;45.568;5.448;2023-12-20T00:22:39;69.68;;;31.30;;
28266;SDS011;15525;45.568;5.448;2023-12-20T00:25:05;73.25;;;33.58;;
28266;SDS011;15525;45.568;5.448;2023-12-20T00:27:30;68.82;;;31.88;;
28266;SDS011;15525;45.568;5.448;2023-12-20T00:29:56;72.85;;;35.15;;
28266;SDS011;15525;45.568;5.448;2023-12-20T00:32:21;70.47;;;34.15;;
28266;SDS011;15525;45.568;5.448;2023-12-20T00:34:47;76.78;;;35.05;;
28266;SDS011;15525;45.568;5.448;2023-12-20T00:37:12;69.35;;;32.70;;
28266;SDS011;15525;45.568;5.448;2023-12-20T00:39:38;70.22;;;34.00;;
28266;SDS011;15525;45.568;5.448;2023-12-20T00:42:03;71.72;;;33.58;;
28266;SDS011;15525;45.568;5.448;2023-12-20T00:44:29;76.05;;;35.65;;
28266;SDS011;15525;45.568;5.448;2023-12-20T00:46:54;72.55;;;33.47;;
28266;SDS011;15525;45.568;5.448;2023-12-20T00:49:20;69.90;;;32.80;;
28266;SDS011;15525;45.568;5.448;2023-12-20T00:51:45;72.45;;;34.38;;
28266;SDS011;15525;45.568;5.448;2023-12-20T00:54:12;71.88;;;35.33;;
28266;SDS011;15525;45.568;5.448;2023-12-20T00:56:37;81.18;;;37.60;;
28266;SDS011;15525;45.568;5.448;2023-12-20T00:59:02;77.50;;;37.00;;
28266;SDS011;15525;45.568;5.448;2023-12-20T01:01:28;81.97;;;37.08;;
28266;SDS011;15525;45.568;5.448;2023-12-20T01:03:53;84.72;;;37.30;;
28266;SDS011;15525;45.568;5.448;2023-12-20T01:06:19;84.15;;;36.97;;
28266;SDS011;15525;45.568;5.448;2023-12-20T01:08:44;80.53;;;37.15;;
28266;SDS011;15525;45.568;5.448;2023-12-20T01:11:10;79.78;;;36.30;;
28266;SDS011;15525;45.568;5.448;2023-12-20T01:13:35;76.72;;;36.53;;
28266;SDS011;15525;45.568;5.448;2023-12-20T01:16:01;75.75;;;35.67;;
28266;SDS011;15525;45.568;5.448;2023-12-20T01:18:26;75.35;;;36.50;;
28266;SDS011;15525;45.568;5.448;2023-12-20T01:20:52;79.35;;;36.42;;
28266;SDS011;15525;45.568;5.448;2023-12-20T01:23:17;76.32;;;36.53;;
28266;SDS011;15525;45.568;5.448;2023-12-20T01:25:42;83.70;;;37.38;;
28266;SDS011;15525;45.568;5.448;2023-12-20T01:28:08;79.07;;;37.17;;
28266;SDS011;15525;45.568;5.448;2023-12-20T01:30:33;81.28;;;36.42;;
28266;SDS011;15525;45.568;5.448;2023-12-20T01:33:00;76.30;;;36.03;;
28266;SDS011;15525;45.568;5.448;2023-12-20T01:35:26;77.65;;;35.97;;
28266;SDS011;15525;45.568;5.448;2023-12-20T01:37:51;72.72;;;34.50;;
28266;SDS011;15525;45.568;5.448;2023-12-20T01:40:17;74.07;;;35.60;;
28266;SDS011;15525;45.568;5.448;2023-12-20T01:42:43;73.82;;;34.58;;
28266;SDS011;15525;45.568;5.448;2023-12-20T01:45:09;71.90;;;34.45;;
28266;SDS011;15525;45.568;5.448;2023-12-20T01:47:34;75.95;;;35.70;;
28266;SDS011;15525;45.568;5.448;2023-12-20T01:50:00;77.43;;;35.53;;
28266;SDS011;15525;45.568;5.448;2023-12-20T01:52:28;74.13;;;34.75;;
28266;SDS011;15525;45.568;5.448;2023-12-20T01:54:54;77.30;;;35.90;;
28266;SDS011;15525;45.568;5.448;2023-12-20T01:57:26;71.38;;;34.42;;
28266;SDS011;15525;45.568;5.448;2023-12-20T01:59:52;71.38;;;34.53;;
28266;SDS011;15525;45.568;5.448;2023-12-20T02:02:18;76.95;;;36.75;;
28266;SDS011;15525;45.568;5.448;2023-12-20T02:04:44;78.00;;;36.97;;
28266;SDS011;15525;45.568;5.448;2023-12-20T02:07:10;72.95;;;35.60;;
28266;SDS011;15525;45.568;5.448;2023-12-20T02:09:36;74.68;;;35.35;;
28266;SDS011;15525;45.568;5.448;2023-12-20T02:12:03;77.80;;;36.30;;
28266;SDS011;15525;45.568;5.448;2023-12-20T02:14:29;68.20;;;34.28;;
28266;SDS011;15525;45.568;5.448;2023-12-20T02:16:55;73.30;;;35.38;;
28266;SDS011;15525;45.568;5.448;2023-12-20T02:19:21;77.18;;;36.45;;
28266;SDS011;15525;45.568;5.448;2023-12-20T02:21:48;77.50;;;35.72;;
28266;SDS011;15525;45.568;5.448;2023-12-20T02:24:13;75.13;;;35.28;;
28266;SDS011;15525;45.568;5.448;2023-12-20T02:26:39;71.53;;;35.17;;
28266;SDS011;15525;45.568;5.448;2023-12-20T02:29:05;77.75;;;36.70;;
28266;SDS011;15525;45.568;5.448;2023-12-20T02:31:30;78.55;;;37.13;;
28266;SDS011;15525;45.568;5.448;2023-12-20T02:33:56;80.25;;;36.92;;
28266;SDS011;15525;45.568;5.448;2023-12-20T02:36:21;98.22;;;43.42;;
28266;SDS011;15525;45.568;5.448;2023-12-20T02:38:46;88.00;;;39.80;;
28266;SDS011;15525;45.568;5.448;2023-12-20T02:41:13;80.45;;;38.15;;
28266;SDS011;15525;45.568;5.448;2023-12-20T02:43:39;78.72;;;36.85;;
28266;SDS011;15525;45.568;5.448;2023-12-20T02:46:04;76.40;;;37.92;;
28266;SDS011;15525;45.568;5.448;2023-12-20T02:48:30;80.75;;;38.45;;
28266;SDS011;15525;45.568;5.448;2023-12-20T02:50:55;83.85;;;37.88;;
28266;SDS011;15525;45.568;5.448;2023-12-20T02:53:20;80.35;;;38.25;;
28266;SDS011;15525;45.568;5.448;2023-12-20T02:55:46;81.63;;;38.25;;
28266;SDS011;15525;45.568;5.448;2023-12-20T02:58:11;81.72;;;38.70;;
28266;SDS011;15525;45.568;5.448;2023-12-20T03:00:37;84.13;;;39.35;;
28266;SDS011;15525;45.568;5.448;2023-12-20T03:03:02;86.22;;;38.90;;
28266;SDS011;15525;45.568;5.448;2023-12-20T03:05:28;86.40;;;37.92;;
28266;SDS011;15525;45.568;5.448;2023-12-20T03:07:53;87.28;;;39.70;;
28266;SDS011;15525;45.568;5.448;2023-12-20T03:10:18;80.35;;;36.42;;
28266;SDS011;15525;45.568;5.448;2023-12-20T03:12:44;71.90;;;36.13;;
28266;SDS011;15525;45.568;5.448;2023-12-20T03:15:09;76.10;;;35.30;;
28266;SDS011;15525;45.568;5.448;2023-12-20T03:17:35;76.53;;;36.67;;
28266;SDS011;15525;45.568;5.448;2023-12-20T03:20:01;78.55;;;35.80;;
28266;SDS011;15525;45.568;5.448;2023-12-20T03:22:27;77.45;;;36.85;;
28266;SDS011;15525;45.568;5.448;2023-12-20T03:24:52;83.40;;;38.00;;
28266;SDS011;15525;45.568;5.448;2023-12-20T03:27:17;79.90;;;36.65;;
28266;SDS011;15525;45.568;5.448;2023-12-20T03:29:43;83.45;;;37.47;;
28266;SDS011;15525;45.568;5.448;2023-12-20T03:32:08;79.70;;;38.65;;
28266;SDS011;15525;45.568;5.448;2023-12-20T03:34:34;76.38;;;36.75;;
28266;SDS011;15525;45.568;5.448;2023-12-20T03:36:59;73.57;;;35.25;;
28266;SDS011;15525;45.568;5.448;2023-12-20T03:39:24;81.47;;;39.25;;
28266;SDS011;15525;45.568;5.448;2023-12-20T03:41:50;79.43;;;38.22;;
28266;SDS011;15525;45.568;5.448;2023-12-20T03:44:15;80.65;;;38.10;;
28266;SDS011;15525;45.568;5.448;2023-12-20T03:46:41;79.15;;;37.95;;
28266;SDS011;15525;45.568;5.448;2023-12-20T03:49:06;80.38;;;37.53;;
28266;SDS011;15525;45.568;5.448;2023-12-20T03:51:31;86.47;;;39.75;;
28266;SDS011;15525;45.568;5.448;2023-12-20T03:53:57;75.32;;;37.25;;
28266;SDS011;15525;45.568;5.448;2023-12-20T03:56:22;81.60;;;38.92;;
28266;SDS011;15525;45.568;5.448;2023-12-20T03:58:48;82.22;;;37.88;;
28266;SDS011;15525;45.568;5.448;2023-12-20T04:01:13;78.07;;;38.22;;
28266;SDS011;15525;45.568;5.448;2023-12-20T04:03:38;78.72;;;37.08;;
28266;SDS011;15525;45.568;5.448;2023-12-20T04:06:05;80.65;;;37.63;;
28266;SDS011;15525;45.568;5.448;2023-12-20T04:08:30;76.57;;;37.17;;
28266;SDS011;15525;45.568;5.448;2023-12-20T04:10:56;83.57;;;38.67;;
28266;SDS011;15525;45.568;5.448;2023-12-20T04:13:21;75.90;;;35.50;;
28266;SDS011;15525;45.568;5.448;2023-12-20T04:15:47;77.80;;;37.05;;
28266;SDS011;15525;45.568;5.448;2023-12-20T04:18:15;76.25;;;37.15;;
28266;SDS011;15525;45.568;5.448;2023-12-20T04:20:40;75.45;;;35.75;;
28266;SDS011;15525;45.568;5.448;2023-12-20T04:23:05;75.88;;;36.58;;
28266;SDS011;15525;45.568;5.448;2023-12-20T04:25:32;75.72;;;36.42;;
28266;SDS011;15525;45.568;5.448;2023-12-20T04:27:57;78.57;;;36.97;;
28266;SDS011;15525;45.568;5.448;2023-12-20T04:30:22;80.00;;;37.25;;
28266;SDS011;15525;45.568;5.448;2023-12-20T04:32:48;72.72;;;35.75;;
28266;SDS011;15525;45.568;5.448;2023-12-20T04:35:13;77.20;;;35.78;;
28266;SDS011;15525;45.568;5.448;2023-12-20T04:37:39;71.00;;;36.25;;
28266;SDS011;15525;45.568;5.448;2023-12-20T04:40:04;80.10;;;37.78;;
28266;SDS011;15525;45.568;5.448;2023-12-20T04:42:30;67.22;;;33.42;;
28266;SDS011;15525;45.568;5.448;2023-12-20T04:44:56;72.00;;;33.67;;
28266;SDS011;15525;45.568;5.448;2023-12-20T04:47:21;70.57;;;33.42;;
28266;SDS011;15525;45.568;5.448;2023-12-20T04:49:47;66.40;;;31.15;;
28266;SDS011;15525;45.568;5.448;2023-12-20T04:52:14;68.93;;;32.97;;
28266;SDS011;15525;45.568;5.448;2023-12-20T04:54:39;64.55;;;31.90;;
28266;SDS011;15525;45.568;5.448;2023-12-20T04:57:05;69.57;;;33.38;;
28266;SDS011;15525;45.568;5.448;2023-12-20T04:59:30;67.65;;;32.53;;
28266;SDS011;15525;45.568;5.448;2023-12-20T05:01:56;67.75;;;32.55;;
28266;SDS011;15525;45.568;5.448;2023-12-20T05:04:22;70.93;;;33.80;;
28266;SDS011;15525;45.568;5.448;2023-12-20T05:06:48;72.78;;;34.13;;
28266;SDS011;15525;45.568;5.448;2023-12-20T05:09:15;71.70;;;33.80;;
28266;SDS011;15525;45.568;5.448;2023-12-20T05:11:40;69.78;;;33.63;;
28266;SDS011;15525;45.568;5.448;2023-12-20T05:14:06;70.28;;;33.67;;
28266;SDS011;15525;45.568;5.448;2023-12-20T05:16:32;68.88;;;33.67;;
28266;SDS011;15525;45.568;5.448;2023-12-20T05:18:57;66.13;;;30.92;;
28266;SDS011;15525;45.568;5.448;2023-12-20T05:21:25;69.07;;;32.95;;
28266;SDS011;15525;45.568;5.448;2023-12-20T05:23:51;71.68;;;34.20;;
28266;SDS011;15525;45.568;5.448;2023-12-20T05:26:16;71.45;;;34.13;;
28266;SDS011;15525;45.568;5.448;2023-12-20T05:28:42;63.95;;;30.60;;
28266;SDS011;15525;45.568;5.448;2023-12-20T05:31:07;69.93;;;33.90;;
28266;SDS011;15525;45.568;5.448;2023-12-20T05:33:32;65.07;;;32.53;;
28266;SDS011;15525;45.568;5.448;2023-12-20T05:35:58;63.75;;;32.42;;
28266;SDS011;15525;45.568;5.448;2023-12-20T05:38:24;65.28;;;32.55;;
28266;SDS011;15525;45.568;5.448;2023-12-20T05:40:49;69.80;;;34.90;;
28266;SDS011;15525;45.568;5.448;2023-12-20T05:43:15;67.20;;;31.85;;
28266;SDS011;15525;45.568;5.448;2023-12-20T05:45:40;71.18;;;33.80;;
28266;SDS011;15525;45.568;5.448;2023-12-20T05:48:05;65.18;;;31.88;;
28266;SDS011;15525;45.568;5.448;2023-12-20T05:50:31;68.95;;;31.98;;
28266;SDS011;15525;45.568;5.448;2023-12-20T05:52:56;69.78;;;32.28;;
28266;SDS011;15525;45.568;5.448;2023-12-20T05:55:22;67.13;;;32.00;;
28266;SDS011;15525;45.568;5.448;2023-12-20T05:57:47;63.80;;;32.30;;
28266;SDS011;15525;45.568;5.448;2023-12-20T06:00:13;66.97;;;32.10;;
28266;SDS011;15525;45.568;5.448;2023-12-20T06:02:39;76.65;;;34.53;;
28266;SDS011;15525;45.568;5.448;2023-12-20T06:05:05;72.05;;;34.90;;
28266;SDS011;15525;45.568;5.448;2023-12-20T06:07:30;76.82;;;35.63;;
28266;SDS011;15525;45.568;5.448;2023-12-20T06:09:56;77.40;;;35.92;;
28266;SDS011;15525;45.568;5.448;2023-12-20T06:12:21;75.78;;;36.13;;
28266;SDS011;15525;45.568;5.448;2023-12-20T06:14:46;84.72;;;36.63;;
28266;SDS011;15525;45.568;5.448;2023-12-20T06:17:12;77.57;;;37.30;;
28266;SDS011;15525;45.568;5.448;2023-12-20T06:19:37;88.32;;;39.38;;
28266;SDS011;15525;45.568;5.448;2023-12-20T06:22:03;86.20;;;37.60;;
28266;SDS011;15525;45.568;5.448;2023-12-20T06:24:28;83.10;;;36.80;;
28266;SDS011;15525;45.568;5.448;2023-12-20T06:26:55;84.53;;;37.83;;
28266;SDS011;15525;45.568;5.448;2023-12-20T06:29:20;79.40;;;36.38;;
28266;SDS011;15525;45.568;5.448;2023-12-20T06:31:45;89.30;;;38.70;;
28266;SDS011;15525;45.568;5.448;2023-12-20T06:34:11;86.93;;;39.60;;
28266;SDS011;15525;45.568;5.448;2023-12-20T06:36:36;89.50;;;40.60;;
28266;SDS011;15525;45.568;5.448;2023-12-20T06:39:02;86.43;;;39.75;;
28266;SDS011;15525;45.568;5.448;2023-12-20T06:41:29;86.88;;;39.35;;
28266;SDS011;15525;45.568;5.448;2023-12-20T06:43:55;87.22;;;41.15;;
28266;SDS011;15525;45.568;5.448;2023-12-20T06:46:20;86.15;;;39.88;;
28266;SDS011;15525;45.568;5.448;2023-12-20T06:48:46;350.98;;;149.77;;
28266;SDS011;15525;45.568;5.448;2023-12-20T06:51:14;120.10;;;53.92;;
28266;SDS011;15525;45.568;5.448;2023-12-20T06:53:40;100.05;;;44.92;;
28266;SDS011;15525;45.568;5.448;2023-12-20T06:56:06;96.03;;;42.35;;
28266;SDS011;15525;45.568;5.448;2023-12-20T06:58:32;86.30;;;40.50;;
28266;SDS011;15525;45.568;5.448;2023-12-20T07:00:58;89.53;;;40.72;;
28266;SDS011;15525;45.568;5.448;2023-12-20T07:03:23;91.53;;;42.00;;
28266;SDS011;15525;45.568;5.448;2023-12-20T07:05:48;86.97;;;40.00;;
28266;SDS011;15525;45.568;5.448;2023-12-20T07:08:14;88.38;;;41.40;;
28266;SDS011;15525;45.568;5.448;2023-12-20T07:10:40;90.18;;;41.75;;
28266;SDS011;15525;45.568;5.448;2023-12-20T07:13:06;92.05;;;40.35;;
28266;SDS011;15525;45.568;5.448;2023-12-20T07:15:32;87.18;;;40.65;;
28266;SDS011;15525;45.568;5.448;2023-12-20T07:17:58;93.18;;;41.40;;
28266;SDS011;15525;45.568;5.448;2023-12-20T07:20:25;97.78;;;43.33;;
28266;SDS011;15525;45.568;5.448;2023-12-20T07:22:51;94.57;;;42.20;;
28266;SDS011;15525;45.568;5.448;2023-12-20T07:25:16;98.40;;;42.92;;
28266;SDS011;15525;45.568;5.448;2023-12-20T07:27:41;95.55;;;42.85;;
28266;SDS011;15525;45.568;5.448;2023-12-20T07:30:07;94.22;;;42.17;;
28266;SDS011;15525;45.568;5.448;2023-12-20T07:32:33;102.15;;;42.10;;
28266;SDS011;15525;45.568;5.448;2023-12-20T07:34:58;79.85;;;36.88;;
28266;SDS011;15525;45.568;5.448;2023-12-20T07:37:24;81.93;;;36.78;;
28266;SDS011;15525;45.568;5.448;2023-12-20T07:39:49;83.72;;;37.25;;
28266;SDS011;15525;45.568;5.448;2023-12-20T07:42:15;81.55;;;36.97;;
28266;SDS011;15525;45.568;5.448;2023-12-20T07:44:40;85.38;;;37.53;;
28266;SDS011;15525;45.568;5.448;2023-12-20T07:47:06;84.45;;;37.13;;
28266;SDS011;15525;45.568;5.448;2023-12-20T07:49:31;83.00;;;37.90;;
28266;SDS011;15525;45.568;5.448;2023-12-20T07:51:57;84.30;;;39.05;;
28266;SDS011;15525;45.568;5.448;2023-12-20T07:54:23;82.97;;;37.55;;
28266;SDS011;15525;45.568;5.448;2023-12-20T07:56:48;114.93;;;45.25;;
28266;SDS011;15525;45.568;5.448;2023-12-20T07:59:14;106.68;;;42.40;;
28266;SDS011;15525;45.568;5.448;2023-12-20T08:01:39;92.25;;;39.83;;
28266;SDS011;15525;45.568;5.448;2023-12-20T08:04:05;90.43;;;41.42;;
28266;SDS011;15525;45.568;5.448;2023-12-20T08:06:30;97.68;;;43.45;;
28266;SDS011;15525;45.568;5.448;2023-12-20T08:08:55;88.72;;;41.83;;
28266;SDS011;15525;45.568;5.448;2023-12-20T08:11:21;91.18;;;40.25;;
28266;SDS011;15525;45.568;5.448;2023-12-20T08:13:46;89.60;;;39.03;;
28266;SDS011;15525;45.568;5.448;2023-12-20T08:16:11;89.03;;;38.83;;
28266;SDS011;15525;45.568;5.448;2023-12-20T08:18:38;89.45;;;39.42;;
28266;SDS011;15525;45.568;5.448;2023-12-20T08:21:04;84.07;;;38.80;;
28266;SDS011;15525;45.568;5.448;2023-12-20T08:23:32;92.55;;;38.25;;
28266;SDS011;15525;45.568;5.448;2023-12-20T08:25:58;86.47;;;37.97;;
28266;SDS011;15525;45.568;5.448;2023-12-20T08:28:23;84.72;;;36.28;;
28266;SDS011;15525;45.568;5.448;2023-12-20T08:30:48;84.43;;;36.95;;
28266;SDS011;15525;45.568;5.448;2023-12-20T08:33:18;86.40;;;37.25;;
28266;SDS011;15525;45.568;5.448;2023-12-20T08:35:44;80.32;;;35.75;;
28266;SDS011;15525;45.568;5.448;2023-12-20T08:38:09;80.88;;;35.50;;
28266;SDS011;15525;45.568;5.448;2023-12-20T08:40:34;75.32;;;34.08;;
28266;SDS011;15525;45.568;5.448;2023-12-20T08:43:00;76.13;;;32.28;;
28266;SDS011;15525;45.568;5.448;2023-12-20T08:45:26;77.78;;;32.70;;
28266;SDS011;15525;45.568;5.448;2023-12-20T08:47:51;80.20;;;32.67;;
28266;SDS011;15525;45.568;5.448;2023-12-20T08:50:16;66.90;;;31.17;;
28266;SDS011;15525;45.568;5.448;2023-12-20T08:52:42;70.57;;;30.90;;
28266;SDS011;15525;45.568;5.448;2023-12-20T08:55:07;71.03;;;31.40;;
28266;SDS011;15525;45.568;5.448;2023-12-20T08:57:35;66.03;;;29.55;;
28266;SDS011;15525;45.568;5.448;2023-12-20T09:00:01;72.10;;;32.45;;
28266;SDS011;15525;45.568;5.448;2023-12-20T09:02:28;77.63;;;33.88;;
28266;SDS011;15525;45.568;5.448;2023-12-20T09:04:54;67.60;;;29.42;;
28266;SDS011;15525;45.568;5.448;2023-12-20T09:07:24;61.22;;;28.13;;
28266;SDS011;15525;45.568;5.448;2023-12-20T09:09:50;62.95;;;28.50;;
28266;SDS011;15525;45.568;5.448;2023-12-20T09:12:17;71.43;;;30.83;;
28266;SDS011;15525;45.568;5.448;2023-12-20T09:14:43;63.78;;;30.42;;
28266;SDS011;15525;45.568;5.448;2023-12-20T09:17:09;65.90;;;30.63;;
28266;SDS011;15525;45.568;5.448;2023-12-20T09:19:36;62.35;;;27.65;;
28266;SDS011;15525;45.568;5.448;2023-12-20T09:22:02;59.38;;;26.52;;
28266;SDS011;15525;45.568;5.448;2023-12-20T09:24:27;56.00;;;25.10;;
28266;SDS011;15525;45.568;5.448;2023-12-20T09:26:52;53.88;;;24.38;;
28266;SDS011;15525;45.568;5.448;2023-12-20T09:29:18;51.17;;;22.92;;
28266;SDS011;15525;45.568;5.448;2023-12-20T09:31:44;52.28;;;24.08;;
28266;SDS011;15525;45.568;5.448;2023-12-20T09:34:11;46.70;;;22.95;;
28266;SDS011;15525;45.568;5.448;2023-12-20T09:36:37;48.35;;;23.17;;
28266;SDS011;15525;45.568;5.448;2023-12-20T09:39:05;47.95;;;23.17;;
28266;SDS011;15525;45.568;5.448;2023-12-20T09:41:31;47.15;;;22.77;;
28266;SDS011;15525;45.568;5.448;2023-12-20T09:44:00;52.40;;;24.63;;
28266;SDS011;15525;45.568;5.448;2023-12-20T09:46:27;44.17;;;22.30;;
28266;SDS011;15525;45.568;5.448;2023-12-20T09:48:58;48.60;;;23.70;;
28266;SDS011;15525;45.568;5.448;2023-12-20T09:51:25;50.85;;;24.33;;
28266;SDS011;15525;45.568;5.448;2023-12-20T09:53:52;33.03;;;16.15;;
28266;SDS011;15525;45.568;5.448;2023-12-20T09:56:19;33.55;;;17.02;;
28266;SDS011;15525;45.568;5.448;2023-12-20T09:58:46;28.17;;;15.65;;
28266;SDS011;15525;45.568;5.448;2023-12-20T10:01:12;26.27;;;14.50;;
28266;SDS011;15525;45.568;5.448;2023-12-20T10:03:37;23.00;;;12.90;;
28266;SDS011;15525;45.568;5.448;2023-12-20T10:06:06;22.17;;;11.85;;
28266;SDS011;15525;45.568;5.448;2023-12-20T10:08:32;22.48;;;12.20;;
28266;SDS011;15525;45.568;5.448;2023-12-20T10:10:57;22.92;;;11.13;;
28266;SDS011;15525;45.568;5.448;2023-12-20T10:13:27;18.58;;;10.40;;
28266;SDS011;15525;45.568;5.448;2023-12-20T10:15:54;18.50;;;10.70;;
28266;SDS011;15525;45.568;5.448;2023-12-20T10:18:20;18.42;;;10.05;;
28266;SDS011;15525;45.568;5.448;2023-12-20T10:20:45;18.92;;;10.30;;
28266;SDS011;15525;45.568;5.448;2023-12-20T10:23:11;18.65;;;10.25;;
28266;SDS011;15525;45.568;5.448;2023-12-20T10:25:37;19.55;;;10.75;;
28266;SDS011;15525;45.568;5.448;2023-12-20T10:28:12;19.90;;;11.10;;
28266;SDS011;15525;45.568;5.448;2023-12-20T10:30:39;20.75;;;11.45;;
28266;SDS011;15525;45.568;5.448;2023-12-20T10:33:08;20.58;;;11.35;;
28266;SDS011;15525;45.568;5.448;2023-12-20T10:35:34;21.38;;;11.57;;
28266;SDS011;15525;45.568;5.448;2023-12-20T10:38:02;20.80;;;11.68;;
28266;SDS011;15525;45.568;5.448;2023-12-20T10:40:29;22.08;;;12.00;;
28266;SDS011;15525;45.568;5.448;2023-12-20T10:42:55;18.58;;;10.90;;
28266;SDS011;15525;45.568;5.448;2023-12-20T10:45:21;22.30;;;12.43;;
28266;SDS011;15525;45.568;5.448;2023-12-20T10:47:48;23.08;;;12.30;;
28266;SDS011;15525;45.568;5.448;2023-12-20T10:50:15;22.02;;;11.57;;
28266;SDS011;15525;45.568;5.448;2023-12-20T10:52:40;20.23;;;11.07;;
28266;SDS011;15525;45.568;5.448;2023-12-20T10:55:07;20.40;;;10.80;;
28266;SDS011;15525;45.568;5.448;2023-12-20T10:57:34;18.38;;;10.63;;
28266;SDS011;15525;45.568;5.448;2023-12-20T11:00:02;19.85;;;10.95;;
28266;SDS011;15525;45.568;5.448;2023-12-20T11:02:33;17.80;;;10.85;;
28266;SDS011;15525;45.568;5.448;2023-12-20T11:07:36;20.75;;;10.50;;
28266;SDS011;15525;45.568;5.448;2023-12-20T11:10:19;18.10;;;10.40;;
28266;SDS011;15525;45.568;5.448;2023-12-20T11:12:52;18.85;;;10.65;;
28266;SDS011;15525;45.568;5.448;2023-12-20T11:15:22;17.92;;;10.25;;
28266;SDS011;15525;45.568;5.448;2023-12-20T11:17:55;18.50;;;11.18;;
28266;SDS011;15525;45.568;5.448;2023-12-20T11:20:22;21.23;;;11.27;;
28266;SDS011;15525;45.568;5.448;2023-12-20T11:23:04;21.63;;;10.25;;
28266;SDS011;15525;45.568;5.448;2023-12-20T11:25:34;16.00;;;9.30;;
28266;SDS011;15525;45.568;5.448;2023-12-20T11:28:11;15.48;;;9.55;;
28266;SDS011;15525;45.568;5.448;2023-12-20T11:30:40;17.25;;;9.98;;
28266;SDS011;15525;45.568;5.448;2023-12-20T11:33:07;16.40;;;9.60;;
28266;SDS011;15525;45.568;5.448;2023-12-20T11:35:35;19.67;;;10.52;;
28266;SDS011;15525;45.568;5.448;2023-12-20T11:38:02;18.63;;;10.75;;
28266;SDS011;15525;45.568;5.448;2023-12-20T11:40:27;17.63;;;10.88;;
28266;SDS011;15525;45.568;5.448;2023-12-20T11:42:53;18.23;;;10.98;;
28266;SDS011;15525;45.568;5.448;2023-12-20T11:45:19;17.90;;;11.15;;
28266;SDS011;15525;45.568;5.448;2023-12-20T11:47:49;18.10;;;10.63;;
28266;SDS011;15525;45.568;5.448;2023-12-20T11:50:16;18.35;;;10.93;;
28266;SDS011;15525;45.568;5.448;2023-12-20T11:52:41;18.27;;;10.27;;
28266;SDS011;15525;45.568;5.448;2023-12-20T11:55:07;15.85;;;9.90;;
28266;SDS011;15525;45.568;5.448;2023-12-20T11:57:33;16.35;;;10.07;;
28266;SDS011;15525;45.568;5.448;2023-12-20T11:59:59;16.95;;;9.90;;
28266;SDS011;15525;45.568;5.448;2023-12-20T12:02:24;15.50;;;9.65;;
28266;SDS011;15525;45.568;5.448;2023-12-20T12:04:50;15.98;;;9.70;;
28266;SDS011;15525;45.568;5.448;2023-12-20T12:07:16;14.65;;;9.32;;
28266;SDS011;15525;45.568;5.448;2023-12-20T12:09:42;13.88;;;8.60;;
28266;SDS011;15525;45.568;5.448;2023-12-20T12:12:08;13.82;;;8.32;;
28266;SDS011;15525;45.568;5.448;2023-12-20T12:14:33;14.25;;;8.52;;
28266;SDS011;15525;45.568;5.448;2023-12-20T12:17:01;14.73;;;8.23;;
28266;SDS011;15525;45.568;5.448;2023-12-20T12:19:27;12.77;;;7.60;;
28266;SDS011;15525;45.568;5.448;2023-12-20T12:24:39;12.90;;;7.55;;
28266;SDS011;15525;45.568;5.448;2023-12-20T12:27:08;10.98;;;6.75;;
28266;SDS011;15525;45.568;5.448;2023-12-20T12:29:34;10.77;;;6.78;;
28266;SDS011;15525;45.568;5.448;2023-12-20T12:32:00;10.38;;;6.57;;
28266;SDS011;15525;45.568;5.448;2023-12-20T12:34:29;11.73;;;6.68;;
28266;SDS011;15525;45.568;5.448;2023-12-20T12:36:55;10.55;;;6.50;;
28266;SDS011;15525;45.568;5.448;2023-12-20T12:39:22;8.73;;;6.07;;
28266;SDS011;15525;45.568;5.448;2023-12-20T12:41:49;10.57;;;6.07;;
28266;SDS011;15525;45.568;5.448;2023-12-20T12:44:15;10.63;;;6.10;;
28266;SDS011;15525;45.568;5.448;2023-12-20T12:46:40;10.98;;;6.57;;
28266;SDS011;15525;45.568;5.448;2023-12-20T12:49:06;8.75;;;4.97;;
28266;SDS011;15525;45.568;5.448;2023-12-20T12:51:31;7.72;;;4.97;;
28266;SDS011;15525;45.568;5.448;2023-12-20T12:53:57;7.63;;;5.28;;
28266;SDS011;15525;45.568;5.448;2023-12-20T12:56:22;9.05;;;5.20;;
28266;SDS011;15525;45.568;5.448;2023-12-20T12:58:48;7.93;;;5.57;;
28266;SDS011;15525;45.568;5.448;2023-12-20T13:01:13;10.32;;;5.38;;
28266;SDS011;15525;45.568;5.448;2023-12-20T13:03:39;9.32;;;5.80;;
28266;SDS011;15525;45.568;5.448;2023-12-20T13:06:05;9.07;;;5.70;;
28266;SDS011;15525;45.568;5.448;2023-12-20T13:08:31;11.60;;;5.93;;
28266;SDS011;15525;45.568;5.448;2023-12-20T13:10:57;9.25;;;5.50;;
28266;SDS011;15525;45.568;5.448;2023-12-20T13:13:25;9.55;;;5.20;;
28266;SDS011;15525;45.568;5.448;2023-12-20T13:15:53;9.25;;;5.30;;
28266;SDS011;15525;45.568;5.448;2023-12-20T13:18:20;8.00;;;5.25;;
28266;SDS011;15525;45.568;5.448;2023-12-20T13:20:46;9.82;;;5.55;;
28266;SDS011;15525;45.568;5.448;2023-12-20T13:23:12;8.95;;;5.50;;
28266;SDS011;15525;45.568;5.448;2023-12-20T13:25:37;8.98;;;5.28;;
28266;SDS011;15525;45.568;5.448;2023-12-20T13:28:03;8.32;;;5.15;;
28266;SDS011;15525;45.568;5.448;2023-12-20T13:30:29;7.25;;;4.53;;
28266;SDS011;15525;45.568;5.448;2023-12-20T13:32:54;8.00;;;4.43;;
28266;SDS011;15525;45.568;5.448;2023-12-20T13:35:20;6.63;;;4.38;;
28266;SDS011;15525;45.568;5.448;2023-12-20T13:37:45;7.47;;;4.20;;
28266;SDS011;15525;45.568;5.448;2023-12-20T13:40:11;8.00;;;4.10;;
28266;SDS011;15525;45.568;5.448;2023-12-20T13:42:37;6.50;;;3.80;;
28266;SDS011;15525;45.568;5.448;2023-12-20T13:45:03;5.63;;;3.38;;
28266;SDS011;15525;45.568;5.448;2023-12-20T13:47:30;7.18;;;3.50;;
28266;SDS011;15525;45.568;5.448;2023-12-20T13:49:56;6.53;;;3.83;;
28266;SDS011;15525;45.568;5.448;2023-12-20T13:52:21;8.90;;;3.63;;
28266;SDS011;15525;45.568;5.448;2023-12-20T13:54:46;6.38;;;3.30;;
28266;SDS011;15525;45.568;5.448;2023-12-20T13:57:18;5.65;;;2.90;;
28266;SDS011;15525;45.568;5.448;2023-12-20T13:59:43;5.43;;;2.75;;
28266;SDS011;15525;45.568;5.448;2023-12-20T14:02:10;8.75;;;2.72;;
28266;SDS011;15525;45.568;5.448;2023-12-20T14:04:35;4.75;;;2.40;;
28266;SDS011;15525;45.568;5.448;2023-12-20T14:07:00;6.05;;;2.55;;
28266;SDS011;15525;45.568;5.448;2023-12-20T14:09:26;4.55;;;2.40;;
28266;SDS011;15525;45.568;5.448;2023-12-20T14:11:51;3.42;;;2.22;;
28266;SDS011;15525;45.568;5.448;2023-12-20T14:14:17;6.93;;;2.35;;
28266;SDS011;15525;45.568;5.448;2023-12-20T14:16:42;6.03;;;2.70;;
28266;SDS011;15525;45.568;5.448;2023-12-20T14:19:10;7.78;;;2.70;;
28266;SDS011;15525;45.568;5.448;2023-12-20T14:21:36;4.35;;;2.38;;
28266;SDS011;15525;45.568;5.448;2023-12-20T14:24:03;6.70;;;2.40;;